Time,TemperatureF,DewpointF,PressureIn,WindDirection,WindDirectionDegrees,WindSpeedMPH,WindSpeedGustMPH,Humidity,HourlyPrecipIn,Conditions,Clouds,dailyrainin,SoftwareType,DateUTC
2013-07-05 00:00:00,73.9,58.7,29.91,NE,45,0.0,0.0,59,0.00,,---,0.00,VWS V14.01,2013-07-05 07:00:00,
2013-07-05 01:00:00,72.0,58.7,29.91,NE,45,0.0,0.0,63,0.00,,---,0.00,VWS V14.01,2013-07-05 08:00:00,
2013-07-05 02:00:00,71.2,58.9,29.91,NE,45,0.0,0.0,65,0.00,,---,0.00,VWS V14.01,2013-07-05 09:00:00,
2013-07-05 03:00:00,70.3,58.9,29.91,NE,45,0.0,0.0,67,0.00,,---,0.00,VWS V14.01,2013-07-05 10:00:00,
2013-07-05 04:00:00,69.6,58.6,29.91,NE,45,0.0,0.0,68,0.00,,---,0.00,VWS V14.01,2013-07-05 11:00:00,
2013-07-05 05:00:00,68.9,58.7,29.91,NE,45,0.0,0.0,70,0.00,,---,0.00,VWS V14.01,2013-07-05 12:00:00,
2013-07-05 06:00:00,68.5,58.8,29.91,NE,45,0.0,0.0,71,0.00,,---,0.00,VWS V14.01,2013-07-05 13:00:00,
2013-07-05 07:00:00,68.9,60.3,29.94,NE,45,0.0,0.0,74,0.00,,---,0.00,VWS V14.01,2013-07-05 14:00:00,
2013-07-05 08:00:00,73.6,64.0,29.94,NE,45,0.0,0.0,72,0.00,,---,0.00,VWS V14.01,2013-07-05 15:00:00,
2013-07-05 09:00:00,88.2,60.1,29.97,NE,45,0.0,0.0,39,0.00,,---,0.00,VWS V14.01,2013-07-05 16:00:00,
2013-07-05 10:00:00,88.5,58.2,29.97,NE,45,4.9,4.9,36,0.00,,---,0.00,VWS V14.01,2013-07-05 17:00:00,
2013-07-05 11:00:00,90.0,54.4,29.97,NE,45,2.7,4.9,30,0.00,,---,0.00,VWS V14.01,2013-07-05 18:00:00,
2013-07-05 12:00:00,94.8,51.3,30.00,NE,45,0.0,4.0,23,0.00,,---,0.00,VWS V14.01,2013-07-05 19:00:00,
2013-07-05 13:00:00,97.3,43.7,30.00,NE,45,0.0,3.6,16,0.00,,---,0.00,VWS V14.01,2013-07-05 20:00:00,
2013-07-05 14:00:00,94.8,38.2,30.00,NE,45,0.0,4.0,14,0.00,,---,0.00,VWS V14.01,2013-07-05 21:00:00,
2013-07-05 15:00:00,94.5,38.0,30.00,NE,45,0.0,3.6,14,0.00,,---,0.00,VWS V14.01,2013-07-05 22:00:00,
2013-07-05 16:00:00,100.2,33.9,30.00,NE,45,0.0,3.6,10,0.00,,---,0.00,VWS V14.01,2013-07-05 23:00:00,
2013-07-05 17:00:00,94.8,38.2,30.00,NE,45,0.0,5.4,14,0.00,,---,0.00,VWS V14.01,2013-07-06 00:00:00,
2013-07-05 18:00:00,90.0,40.8,29.97,NE,45,0.0,3.1,18,0.00,,---,0.00,VWS V14.01,2013-07-06 01:00:00,
2013-07-05 19:00:00,86.0,39.0,29.97,NE,45,0.0,0.0,19,0.00,,---,0.00,VWS V14.01,2013-07-06 02:00:00,
2013-07-05 20:00:00,81.3,43.2,29.94,NE,45,0.0,0.0,26,0.00,,---,0.00,VWS V14.01,2013-07-06 03:00:00,
2013-07-05 21:00:00,74.8,43.8,29.91,NE,45,0.0,0.0,33,0.00,,---,0.00,VWS V14.01,2013-07-06 04:00:00,
2013-07-05 22:00:00,70.9,43.3,29.91,NE,45,0.0,0.0,37,0.00,,---,0.00,VWS V14.01,2013-07-06 05:00:00,
2013-07-05 23:00:00,68.4,43.8,29.91,NE,45,0.0,0.0,41,0.00,,---,0.00,VWS V14.01,2013-07-06 06:00:00,